sensor_id;sensor_type;location;lat;lon;timestamp;temperature;humidity
23520;DHT22;11936;50.820;4.336;2023-02-26T16:28:31;7.00;81.80
23520;DHT22;11936;50.820;4.336;2023-02-26T16:30:59;7.10;81.40
23520;DHT22;11936;50.820;4.336;2023-02-26T16:33:30;7.20;82.00
23520;DHT22;11936;50.820;4.336;2023-02-26T16:36:04;7.20;81.90
23520;DHT22;11936;50.820;4.336;2023-02-26T16:38:41;7.20;81.30
23520;DHT22;11936;50.820;4.336;2023-02-26T16:41:09;7.10;81.60
23520;DHT22;11936;50.820;4.336;2023-02-26T16:43:50;7.00;82.70
23520;DHT22;11936;50.820;4.336;2023-02-26T16:46:20;7.10;81.70
23520;DHT22;11936;50.820;4.336;2023-02-26T16:48:54;7.00;82.00
23520;DHT22;11936;50.820;4.336;2023-02-26T16:51:25;6.80;82.10
23520;DHT22;11936;50.820;4.336;2023-02-26T16:53:59;6.80;81.80
23520;DHT22;11936;50.820;4.336;2023-02-26T16:56:31;6.80;82.00
23520;DHT22;11936;50.820;4.336;2023-02-26T17:01:38;6.60;82.80
23520;DHT22;11936;50.820;4.336;2023-02-26T17:04:05;6.60;83.10
23520;DHT22;11936;50.820;4.336;2023-02-26T17:06:31;6.50;83.70
23520;DHT22;11936;50.820;4.336;2023-02-26T17:09:04;6.60;84.30
23520;DHT22;11936;50.820;4.336;2023-02-26T17:11:38;6.60;84.30
23520;DHT22;11936;50.820;4.336;2023-02-26T17:16:46;6.50;84.80
23520;DHT22;11936;50.820;4.336;2023-02-26T17:19:12;6.50;84.60
23520;DHT22;11936;50.820;4.336;2023-02-26T17:22:15;6.50;84.20
23520;DHT22;11936;50.820;4.336;2023-02-26T17:24:35;6.40;84.90
23520;DHT22;11936;50.820;4.336;2023-02-26T17:27:05;6.30;85.90
23520;DHT22;11936;50.820;4.336;2023-02-26T17:29:34;6.30;86.10
23520;DHT22;11936;50.820;4.336;2023-02-26T17:32:05;6.30;86.70
23520;DHT22;11936;50.820;4.336;2023-02-26T17:34:34;6.30;86.40
23520;DHT22;11936;50.820;4.336;2023-02-26T17:37:00;6.40;86.70
23520;DHT22;11936;50.820;4.336;2023-02-26T17:39:33;6.40;87.30
23520;DHT22;11936;50.820;4.336;2023-02-26T17:41:58;6.40;86.70
23520;DHT22;11936;50.820;4.336;2023-02-26T17:44:24;6.30;86.90
23520;DHT22;11936;50.820;4.336;2023-02-26T17:46:49;6.30;87.00
23520;DHT22;11936;50.820;4.336;2023-02-26T17:49:15;6.30;88.50
23520;DHT22;11936;50.820;4.336;2023-02-26T17:51:40;6.40;88.10
23520;DHT22;11936;50.820;4.336;2023-02-26T17:54:06;6.40;87.80
23520;DHT22;11936;50.820;4.336;2023-02-26T17:56:33;6.30;88.40
23520;DHT22;11936;50.820;4.336;2023-02-26T17:59:00;6.40;88.00
23520;DHT22;11936;50.820;4.336;2023-02-26T18:01:26;6.40;87.90
23520;DHT22;11936;50.820;4.336;2023-02-26T18:03:55;6.40;87.90
23520;DHT22;11936;50.820;4.336;2023-02-26T18:06:22;6.30;88.50
23520;DHT22;11936;50.820;4.336;2023-02-26T18:08:48;6.40;88.20
23520;DHT22;11936;50.820;4.336;2023-02-26T18:11:16;6.40;88.60
23520;DHT22;11936;50.820;4.336;2023-02-26T18:13:42;6.40;88.00
23520;DHT22;11936;50.820;4.336;2023-02-26T18:16:21;6.40;88.40
23520;DHT22;11936;50.820;4.336;2023-02-26T18:18:49;6.30;89.00
23520;DHT22;11936;50.820;4.336;2023-02-26T18:21:15;6.20;88.80
23520;DHT22;11936;50.820;4.336;2023-02-26T18:23:41;6.10;88.60
23520;DHT22;11936;50.820;4.336;2023-02-26T18:26:06;6.20;88.40
23520;DHT22;11936;50.820;4.336;2023-02-26T18:28:32;6.10;88.60
23520;DHT22;11936;50.820;4.336;2023-02-26T18:30:58;6.10;88.70
23520;DHT22;11936;50.820;4.336;2023-02-26T18:33:24;6.10;88.50
23520;DHT22;11936;50.820;4.336;2023-02-26T18:35:52;6.10;89.20
23520;DHT22;11936;50.820;4.336;2023-02-26T18:38:25;6.10;89.10
23520;DHT22;11936;50.820;4.336;2023-02-26T18:40:51;6.20;88.60
23520;DHT22;11936;50.820;4.336;2023-02-26T18:43:18;6.10;88.50
23520;DHT22;11936;50.820;4.336;2023-02-26T18:45:45;6.10;89.00
23520;DHT22;11936;50.820;4.336;2023-02-26T18:48:16;6.10;90.20
23520;DHT22;11936;50.820;4.336;2023-02-26T18:50:43;6.00;89.60
23520;DHT22;11936;50.820;4.336;2023-02-26T18:53:08;6.10;89.00
23520;DHT22;11936;50.820;4.336;2023-02-26T18:55:34;6.10;89.10
23520;DHT22;11936;50.820;4.336;2023-02-26T18:58:00;6.10;89.50
23520;DHT22;11936;50.820;4.336;2023-02-26T19:00:25;6.20;89.10
23520;DHT22;11936;50.820;4.336;2023-02-26T19:02:53;6.20;88.40
23520;DHT22;11936;50.820;4.336;2023-02-26T19:05:20;6.20;89.00
23520;DHT22;11936;50.820;4.336;2023-02-26T19:07:48;6.20;89.20
23520;DHT22;11936;50.820;4.336;2023-02-26T19:10:14;6.10;89.00
23520;DHT22;11936;50.820;4.336;2023-02-26T19:12:41;6.10;89.40
23520;DHT22;11936;50.820;4.336;2023-02-26T19:15:07;6.00;89.40
23520;DHT22;11936;50.820;4.336;2023-02-26T19:17:33;5.80;89.70
23520;DHT22;11936;50.820;4.336;2023-02-26T19:20:00;5.90;89.70
23520;DHT22;11936;50.820;4.336;2023-02-26T19:22:25;5.90;89.90
23520;DHT22;11936;50.820;4.336;2023-02-26T19:24:54;6.00;89.70
23520;DHT22;11936;50.820;4.336;2023-02-26T19:27:19;6.00;89.50
23520;DHT22;11936;50.820;4.336;2023-02-26T19:29:45;6.00;89.30
23520;DHT22;11936;50.820;4.336;2023-02-26T19:32:11;5.90;89.60
23520;DHT22;11936;50.820;4.336;2023-02-26T19:34:37;5.90;89.90
23520;DHT22;11936;50.820;4.336;2023-02-26T19:37:03;5.70;90.20
23520;DHT22;11936;50.820;4.336;2023-02-26T19:39:29;5.80;90.00
23520;DHT22;11936;50.820;4.336;2023-02-26T19:41:55;5.80;90.20
23520;DHT22;11936;50.820;4.336;2023-02-26T19:44:23;5.70;90.20
23520;DHT22;11936;50.820;4.336;2023-02-26T19:46:49;5.70;90.30
23520;DHT22;11936;50.820;4.336;2023-02-26T19:49:15;5.70;90.60
23520;DHT22;11936;50.820;4.336;2023-02-26T19:51:41;5.60;90.70
23520;DHT22;11936;50.820;4.336;2023-02-26T19:54:07;5.60;90.70
23520;DHT22;11936;50.820;4.336;2023-02-26T19:56:33;5.60;90.70
23520;DHT22;11936;50.820;4.336;2023-02-26T19:58:58;5.50;90.50
23520;DHT22;11936;50.820;4.336;2023-02-26T20:01:25;5.50;90.80
23520;DHT22;11936;50.820;4.336;2023-02-26T20:03:50;5.60;90.70
23520;DHT22;11936;50.820;4.336;2023-02-26T20:06:17;5.60;90.90
23520;DHT22;11936;50.820;4.336;2023-02-26T20:08:43;5.60;90.80
23520;DHT22;11936;50.820;4.336;2023-02-26T20:11:08;5.60;91.20
23520;DHT22;11936;50.820;4.336;2023-02-26T20:13:34;5.60;91.30
23520;DHT22;11936;50.820;4.336;2023-02-26T20:16:05;5.60;91.10
23520;DHT22;11936;50.820;4.336;2023-02-26T20:18:33;5.50;91.40
23520;DHT22;11936;50.820;4.336;2023-02-26T20:21:01;5.60;91.60
23520;DHT22;11936;50.820;4.336;2023-02-26T20:23:27;5.50;91.70
23520;DHT22;11936;50.820;4.336;2023-02-26T20:25:56;5.40;92.00
23520;DHT22;11936;50.820;4.336;2023-02-26T20:28:24;5.50;92.10
23520;DHT22;11936;50.820;4.336;2023-02-26T20:30:51;5.50;92.20
23520;DHT22;11936;50.820;4.336;2023-02-26T20:33:17;5.40;92.30
23520;DHT22;11936;50.820;4.336;2023-02-26T20:35:43;5.50;92.70
23520;DHT22;11936;50.820;4.336;2023-02-26T20:38:11;5.40;93.10
23520;DHT22;11936;50.820;4.336;2023-02-26T20:40:37;5.50;92.70
23520;DHT22;11936;50.820;4.336;2023-02-26T20:43:03;5.50;92.70
23520;DHT22;11936;50.820;4.336;2023-02-26T20:45:28;5.40;92.90
23520;DHT22;11936;50.820;4.336;2023-02-26T20:47:54;5.40;93.20
23520;DHT22;11936;50.820;4.336;2023-02-26T20:50:20;5.30;93.30
23520;DHT22;11936;50.820;4.336;2023-02-26T20:52:45;5.30;93.60
23520;DHT22;11936;50.820;4.336;2023-02-26T20:55:11;5.10;93.90
23520;DHT22;11936;50.820;4.336;2023-02-26T20:57:37;5.20;94.10
23520;DHT22;11936;50.820;4.336;2023-02-26T21:00:04;5.20;94.20
23520;DHT22;11936;50.820;4.336;2023-02-26T21:02:36;5.10;94.50
23520;DHT22;11936;50.820;4.336;2023-02-26T21:05:02;5.00;94.60
23520;DHT22;11936;50.820;4.336;2023-02-26T21:07:28;4.90;94.90
23520;DHT22;11936;50.820;4.336;2023-02-26T21:09:54;5.00;95.00
23520;DHT22;11936;50.820;4.336;2023-02-26T21:12:19;5.10;95.10
23520;DHT22;11936;50.820;4.336;2023-02-26T21:14:45;5.00;95.10
23520;DHT22;11936;50.820;4.336;2023-02-26T21:17:11;5.10;95.30
23520;DHT22;11936;50.820;4.336;2023-02-26T21:19:37;5.00;95.50
23520;DHT22;11936;50.820;4.336;2023-02-26T21:22:03;5.00;95.70
23520;DHT22;11936;50.820;4.336;2023-02-26T21:24:29;4.90;95.70
23520;DHT22;11936;50.820;4.336;2023-02-26T21:26:55;4.90;95.80
23520;DHT22;11936;50.820;4.336;2023-02-26T21:29:23;4.90;96.00
23520;DHT22;11936;50.820;4.336;2023-02-26T21:31:49;4.90;96.00
23520;DHT22;11936;50.820;4.336;2023-02-26T21:34:21;4.90;96.10
23520;DHT22;11936;50.820;4.336;2023-02-26T21:36:47;5.00;96.10
23520;DHT22;11936;50.820;4.336;2023-02-26T21:39:13;5.00;96.20
23520;DHT22;11936;50.820;4.336;2023-02-26T21:41:38;5.00;96.30
23520;DHT22;11936;50.820;4.336;2023-02-26T21:44:04;5.00;96.40
23520;DHT22;11936;50.820;4.336;2023-02-26T21:46:30;5.00;96.40
23520;DHT22;11936;50.820;4.336;2023-02-26T21:48:55;5.00;96.50
23520;DHT22;11936;50.820;4.336;2023-02-26T21:51:21;4.90;96.60
23520;DHT22;11936;50.820;4.336;2023-02-26T21:53:47;5.00;96.80
23520;DHT22;11936;50.820;4.336;2023-02-26T21:56:16;4.90;96.80
23520;DHT22;11936;50.820;4.336;2023-02-26T21:58:46;4.90;97.30
23520;DHT22;11936;50.820;4.336;2023-02-26T22:01:12;4.90;97.20
23520;DHT22;11936;50.820;4.336;2023-02-26T22:03:37;4.80;97.30
23520;DHT22;11936;50.820;4.336;2023-02-26T22:06:04;4.80;97.20
23520;DHT22;11936;50.820;4.336;2023-02-26T22:08:32;4.80;97.50
23520;DHT22;11936;50.820;4.336;2023-02-26T22:11:03;4.90;97.50
23520;DHT22;11936;50.820;4.336;2023-02-26T22:13:31;4.80;97.60
23520;DHT22;11936;50.820;4.336;2023-02-26T22:15:56;4.80;97.90
23520;DHT22;11936;50.820;4.336;2023-02-26T22:18:22;4.80;97.80
23520;DHT22;11936;50.820;4.336;2023-02-26T22:20:48;4.80;97.60
23520;DHT22;11936;50.820;4.336;2023-02-26T22:23:13;4.80;97.80
23520;DHT22;11936;50.820;4.336;2023-02-26T22:25:39;4.70;98.00
23520;DHT22;11936;50.820;4.336;2023-02-26T22:28:04;4.60;98.30
23520;DHT22;11936;50.820;4.336;2023-02-26T22:30:31;4.70;98.30
23520;DHT22;11936;50.820;4.336;2023-02-26T22:32:56;4.70;98.30
23520;DHT22;11936;50.820;4.336;2023-02-26T22:35:22;4.70;98.40
23520;DHT22;11936;50.820;4.336;2023-02-26T22:37:48;4.70;98.10
23520;DHT22;11936;50.820;4.336;2023-02-26T22:40:14;4.70;98.40
23520;DHT22;11936;50.820;4.336;2023-02-26T22:42:41;4.60;98.40
23520;DHT22;11936;50.820;4.336;2023-02-26T22:45:07;4.50;98.60
23520;DHT22;11936;50.820;4.336;2023-02-26T22:47:34;4.50;98.80
23520;DHT22;11936;50.820;4.336;2023-02-26T22:49:59;4.60;99.10
23520;DHT22;11936;50.820;4.336;2023-02-26T22:52:27;4.60;99.10
23520;DHT22;11936;50.820;4.336;2023-02-26T22:54:53;4.60;99.00
23520;DHT22;11936;50.820;4.336;2023-02-26T22:57:19;4.60;98.90
23520;DHT22;11936;50.820;4.336;2023-02-26T22:59:44;4.60;99.00
23520;DHT22;11936;50.820;4.336;2023-02-26T23:02:10;4.60;99.00
23520;DHT22;11936;50.820;4.336;2023-02-26T23:04:35;4.70;99.00
23520;DHT22;11936;50.820;4.336;2023-02-26T23:07:01;4.70;98.90
23520;DHT22;11936;50.820;4.336;2023-02-26T23:09:27;4.60;99.00
23520;DHT22;11936;50.820;4.336;2023-02-26T23:11:52;4.50;99.20
23520;DHT22;11936;50.820;4.336;2023-02-26T23:14:18;4.50;99.40
23520;DHT22;11936;50.820;4.336;2023-02-26T23:16:44;4.50;99.40
23520;DHT22;11936;50.820;4.336;2023-02-26T23:19:10;4.40;99.40
23520;DHT22;11936;50.820;4.336;2023-02-26T23:21:36;4.50;99.70
23520;DHT22;11936;50.820;4.336;2023-02-26T23:24:02;4.60;99.70
23520;DHT22;11936;50.820;4.336;2023-02-26T23:26:28;4.60;99.50
23520;DHT22;11936;50.820;4.336;2023-02-26T23:28:54;4.70;99.50
23520;DHT22;11936;50.820;4.336;2023-02-26T23:31:19;4.80;99.40
23520;DHT22;11936;50.820;4.336;2023-02-26T23:33:45;4.80;99.40
23520;DHT22;11936;50.820;4.336;2023-02-26T23:36:10;4.80;99.40
23520;DHT22;11936;50.820;4.336;2023-02-26T23:38:36;4.60;99.50
23520;DHT22;11936;50.820;4.336;2023-02-26T23:41:01;4.60;99.40
23520;DHT22;11936;50.820;4.336;2023-02-26T23:43:27;4.60;99.40
23520;DHT22;11936;50.820;4.336;2023-02-26T23:45:53;4.50;99.60
23520;DHT22;11936;50.820;4.336;2023-02-26T23:48:18;4.50;99.50
23520;DHT22;11936;50.820;4.336;2023-02-26T23:50:46;4.50;99.70
23520;DHT22;11936;50.820;4.336;2023-02-26T23:53:12;4.50;99.90
23520;DHT22;11936;50.820;4.336;2023-02-26T23:55:38;4.40;99.80
23520;DHT22;11936;50.820;4.336;2023-02-26T23:58:03;4.30;99.90
